createdAt,value
2019-03-19T00:02:27.648Z,12.70
2019-03-19T00:05:50.897Z,14.03
2019-03-19T00:09:15.337Z,14.23
2019-03-19T00:12:38.503Z,13.77
2019-03-19T00:16:01.661Z,9.53
2019-03-19T00:19:24.858Z,10.37
2019-03-19T00:22:47.965Z,16.13
2019-03-19T00:26:14.118Z,11.27
2019-03-19T00:29:38.362Z,13.23
2019-03-19T00:33:02.561Z,9.20
2019-03-19T00:36:25.691Z,10.50
2019-03-19T00:39:48.820Z,10.20
2019-03-19T00:43:12.375Z,12.83
2019-03-19T00:46:35.469Z,10.97
2019-03-19T00:49:58.613Z,15.13
2019-03-19T00:53:21.703Z,17.93
2019-03-19T00:56:44.778Z,9.90
2019-03-19T01:00:10.431Z,13.67
2019-03-19T01:03:33.512Z,12.50
2019-03-19T01:06:56.706Z,16.43
2019-03-19T01:10:19.985Z,10.17
2019-03-19T01:13:43.143Z,12.40
2019-03-19T01:17:06.447Z,13.07
2019-03-19T01:20:29.554Z,14.63
2019-03-19T01:23:52.796Z,16.77
2019-03-19T01:27:18.016Z,16.87
2019-03-19T01:30:41.119Z,10.43
2019-03-19T01:34:04.205Z,9.60
2019-03-19T01:37:27.320Z,11.77
2019-03-19T01:40:50.600Z,13.40
2019-03-19T01:44:14.059Z,11.73
2019-03-19T01:47:37.207Z,12.43
2019-03-19T01:51:00.346Z,15.63
2019-03-19T01:54:23.424Z,15.07
2019-03-19T01:57:46.602Z,13.97
2019-03-19T02:01:09.852Z,12.93
2019-03-19T02:04:33.035Z,13.20
2019-03-19T02:07:56.249Z,12.93
2019-03-19T02:11:19.350Z,13.83
2019-03-19T02:14:42.651Z,13.17
2019-03-19T02:18:05.784Z,16.10
2019-03-19T02:21:29.207Z,8.77
2019-03-19T02:24:52.631Z,12.40
2019-03-19T02:28:15.881Z,15.93
2019-03-19T02:31:38.986Z,8.80
2019-03-19T02:35:02.140Z,14.40
2019-03-19T02:38:25.443Z,13.20
2019-03-19T02:41:48.783Z,15.13
2019-03-19T02:45:12.133Z,10.07
2019-03-19T02:48:35.675Z,15.40
2019-03-19T02:51:58.905Z,13.03
2019-03-19T02:55:22.342Z,17.27
2019-03-19T02:58:45.448Z,16.47
2019-03-19T03:02:08.604Z,13.07
2019-03-19T03:05:31.814Z,15.47
2019-03-19T03:08:54.924Z,11.83
2019-03-19T03:12:18.046Z,12.77
2019-03-19T03:15:41.173Z,12.77
2019-03-19T03:19:04.443Z,14.00
2019-03-19T03:22:27.642Z,10.83
2019-03-19T03:25:50.793Z,13.60
2019-03-19T03:29:13.884Z,15.13
2019-03-19T03:32:37.030Z,13.40
2019-03-19T03:36:00.122Z,18.07
2019-03-19T03:39:23.252Z,13.40
2019-03-19T03:42:46.386Z,16.27
2019-03-19T03:46:09.477Z,14.70
2019-03-19T03:49:32.967Z,15.07
2019-03-19T03:52:56.055Z,12.83
2019-03-19T03:56:19.148Z,19.43
2019-03-19T03:59:42.346Z,23.73
2019-03-19T04:03:05.470Z,14.77
2019-03-19T04:06:28.651Z,17.77
2019-03-19T04:09:52.957Z,16.70
2019-03-19T04:13:16.121Z,19.20
2019-03-19T04:16:39.303Z,14.13
2019-03-19T04:20:02.580Z,19.90
2019-03-19T04:23:25.674Z,16.30
2019-03-19T04:26:48.957Z,15.87
2019-03-19T04:30:12.285Z,15.17
2019-03-19T04:33:35.411Z,16.47
2019-03-19T04:36:58.527Z,14.97
2019-03-19T04:40:21.732Z,14.80
2019-03-19T04:43:44.805Z,17.83
2019-03-19T04:47:08.248Z,18.40
2019-03-19T04:50:31.364Z,21.97
2019-03-19T04:53:54.943Z,17.80
2019-03-19T04:57:26.309Z,17.33
2019-03-19T05:00:43.616Z,18.43
2019-03-19T05:04:06.931Z,14.30
2019-03-19T05:07:30.030Z,23.77
2019-03-19T05:10:53.536Z,16.27
2019-03-19T05:14:16.738Z,15.00
2019-03-19T05:17:39.993Z,20.13
2019-03-19T05:21:03.143Z,20.57
2019-03-19T05:24:27.243Z,23.03
2019-03-19T05:27:50.357Z,21.53
2019-03-19T05:31:13.499Z,18.20
2019-03-19T05:34:36.924Z,17.57
2019-03-19T05:38:00.393Z,20.40
2019-03-19T05:41:23.475Z,22.13
2019-03-19T05:44:46.745Z,16.33
2019-03-19T05:48:09.840Z,21.37
2019-03-19T05:51:32.995Z,17.87
2019-03-19T05:54:56.326Z,26.70
2019-03-19T05:58:22.500Z,18.63
2019-03-19T06:01:45.668Z,24.53
2019-03-19T06:05:10.363Z,20.47
2019-03-19T06:08:33.795Z,23.27
2019-03-19T06:11:59.887Z,22.57
2019-03-19T06:15:23.006Z,20.07
2019-03-19T06:18:46.193Z,22.83
2019-03-19T06:22:09.316Z,16.77
2019-03-19T06:25:33.482Z,19.80
2019-03-19T06:28:56.579Z,26.47
2019-03-19T06:32:19.886Z,24.63
2019-03-19T06:35:43.146Z,20.33
2019-03-19T06:39:07.434Z,19.70
2019-03-19T06:42:30.751Z,22.03
2019-03-19T06:45:53.974Z,23.07
2019-03-19T06:49:17.131Z,21.63
2019-03-19T06:52:40.629Z,23.53
2019-03-19T06:56:04.040Z,22.93
2019-03-19T06:59:27.296Z,22.13
2019-03-19T07:02:50.662Z,27.47
2019-03-19T07:06:14.830Z,22.07
2019-03-19T07:09:38.019Z,29.43
2019-03-19T07:13:01.253Z,27.97
2019-03-19T07:16:24.407Z,26.70
2019-03-19T07:19:47.519Z,30.90
2019-03-19T07:23:10.691Z,30.87
2019-03-19T07:26:34.027Z,27.27
2019-03-19T07:29:58.220Z,20.63
2019-03-19T07:33:21.349Z,25.60
2019-03-19T07:36:44.485Z,33.93
2019-03-19T07:40:09.367Z,26.17
2019-03-19T07:43:32.600Z,24.27
2019-03-19T07:46:56.054Z,23.73
2019-03-19T07:50:19.590Z,23.00
2019-03-19T07:53:42.810Z,24.60
2019-03-19T07:57:05.980Z,26.07
2019-03-19T08:00:29.167Z,26.40
2019-03-19T08:03:52.286Z,29.33
2019-03-19T08:07:16.037Z,33.47
2019-03-19T08:10:39.174Z,33.70
2019-03-19T08:14:02.335Z,33.43
2019-03-19T08:17:26.460Z,28.83
2019-03-19T08:20:49.609Z,25.77
2019-03-19T08:24:12.736Z,27.03
2019-03-19T08:27:35.916Z,23.50
2019-03-19T08:30:59.263Z,21.67
2019-03-19T08:34:22.646Z,22.43
2019-03-19T08:37:45.901Z,18.10
2019-03-19T08:41:09.163Z,29.17
2019-03-19T08:44:32.643Z,21.07
2019-03-19T08:47:55.784Z,25.80
2019-03-19T08:51:19.421Z,19.87
2019-03-19T08:54:42.729Z,21.83
2019-03-19T08:58:05.928Z,21.07
2019-03-19T09:01:29.227Z,20.23
2019-03-19T09:04:52.475Z,24.57
2019-03-19T09:08:15.590Z,21.50
2019-03-19T09:11:38.764Z,29.43
2019-03-19T09:15:02.004Z,20.97
2019-03-19T09:18:25.328Z,18.20
2019-03-19T09:21:49.149Z,20.47
2019-03-19T09:25:12.849Z,18.63
2019-03-19T09:28:36.056Z,18.43
2019-03-19T09:31:59.182Z,18.87
2019-03-19T09:35:22.467Z,13.57
2019-03-19T09:38:45.578Z,21.17
2019-03-19T09:42:08.746Z,22.60
2019-03-19T09:45:31.915Z,13.30
2019-03-19T09:48:56.069Z,16.67
2019-03-19T09:52:19.324Z,16.77
2019-03-19T09:55:42.893Z,17.50
2019-03-19T09:59:06.043Z,12.03
2019-03-19T10:02:29.174Z,16.37
2019-03-19T10:05:52.793Z,14.58
2019-03-19T10:09:15.989Z,15.80
2019-03-19T10:12:39.141Z,10.75
2019-03-19T10:16:02.278Z,8.83
2019-03-19T10:19:25.474Z,12.40
2019-03-19T10:22:48.735Z,5.72
2019-03-19T10:26:12.301Z,8.08
2019-03-19T10:29:38.628Z,7.45
2019-03-19T10:33:00.936Z,7.92
2019-03-19T10:36:24.521Z,9.88
2019-03-19T10:39:47.681Z,9.03
2019-03-19T10:43:10.926Z,8.25
2019-03-19T10:46:35.176Z,8.68
2019-03-19T10:49:58.632Z,5.37
2019-03-19T10:53:21.868Z,9.05
2019-03-19T10:56:45.074Z,7.28
2019-03-19T11:00:16.966Z,7.03
2019-03-19T11:03:40.334Z,9.23
2019-03-19T11:07:03.471Z,9.13
2019-03-19T11:10:26.676Z,9.25
2019-03-19T11:13:49.885Z,8.75
2019-03-19T11:17:13.164Z,16.23
2019-03-19T11:20:36.408Z,5.92
2019-03-19T11:23:59.554Z,9.28
2019-03-19T11:27:22.661Z,7.80
2019-03-19T11:30:45.947Z,8.20
2019-03-19T11:34:09.194Z,10.72
2019-03-19T11:37:32.555Z,12.50
2019-03-19T11:40:56.082Z,6.75
2019-03-19T11:44:19.465Z,9.90
2019-03-19T11:47:42.958Z,11.57
2019-03-19T11:51:06.146Z,8.45
2019-03-19T11:54:32.351Z,11.10
2019-03-19T11:57:58.877Z,7.30
2019-03-19T12:01:22.505Z,6.62
2019-03-19T12:04:46.074Z,6.17
2019-03-19T12:08:09.981Z,7.65
2019-03-19T12:11:33.187Z,10.78
2019-03-19T12:14:56.587Z,7.15
2019-03-19T12:18:20.101Z,7.12
2019-03-19T12:21:43.849Z,9.03
2019-03-19T12:25:09.643Z,7.08
2019-03-19T12:28:39.533Z,8.13
2019-03-19T12:32:01.535Z,10.43
2019-03-19T12:35:24.779Z,9.98
2019-03-19T12:38:47.946Z,8.20
2019-03-19T12:42:11.073Z,6.12
2019-03-19T12:45:34.361Z,7.28
2019-03-19T12:48:57.658Z,7.28
2019-03-19T12:52:20.950Z,7.45
2019-03-19T12:55:44.243Z,7.50
2019-03-19T12:59:07.524Z,6.60
2019-03-19T13:02:30.772Z,8.43
2019-03-19T13:05:54.057Z,8.78
2019-03-19T13:09:17.554Z,7.05
2019-03-19T13:12:40.736Z,4.92
2019-03-19T13:16:04.123Z,6.05
2019-03-19T13:19:27.296Z,7.47
2019-03-19T13:22:50.477Z,6.05
2019-03-19T13:26:13.592Z,8.58
2019-03-19T13:29:36.947Z,6.92
2019-03-19T13:33:00.413Z,7.65
2019-03-19T13:36:24.302Z,9.30
2019-03-19T13:39:47.802Z,12.58
2019-03-19T13:43:13.737Z,13.43
2019-03-19T13:46:41.855Z,9.08
2019-03-19T13:50:06.059Z,6.87
2019-03-19T13:53:29.137Z,7.85
2019-03-19T13:56:52.404Z,13.85
2019-03-19T14:00:55.657Z,6.83
2019-03-19T14:04:16.039Z,5.78
2019-03-19T14:07:39.582Z,15.18
2019-03-19T14:11:03.864Z,11.30
2019-03-19T14:14:27.328Z,11.30
2019-03-19T14:17:50.745Z,7.58
2019-03-19T14:21:13.864Z,9.10
2019-03-19T14:24:37.062Z,9.48
2019-03-19T14:28:00.219Z,8.73
2019-03-19T14:31:23.372Z,10.90
2019-03-19T14:34:46.540Z,6.83
2019-03-19T14:38:10.062Z,9.05
2019-03-19T14:41:33.353Z,6.42
2019-03-19T14:44:56.571Z,7.40
2019-03-19T14:48:19.830Z,7.53
2019-03-19T14:51:42.943Z,7.60
2019-03-19T14:55:06.260Z,8.55
2019-03-19T14:58:29.396Z,6.85
2019-03-19T15:01:52.811Z,7.22
2019-03-19T15:05:16.351Z,8.85
2019-03-19T15:08:39.888Z,5.53
2019-03-19T15:12:03.129Z,9.53
2019-03-19T15:15:26.381Z,10.45
2019-03-19T15:18:49.477Z,8.55
2019-03-19T15:22:12.719Z,7.25
2019-03-19T15:25:36.044Z,12.15
2019-03-19T15:28:59.340Z,9.15
2019-03-19T15:32:22.567Z,12.47
2019-03-19T15:35:45.746Z,9.13
2019-03-19T15:39:08.891Z,11.63
2019-03-19T15:42:32.077Z,9.05
2019-03-19T15:45:55.439Z,10.98
2019-03-19T15:49:18.784Z,8.08
2019-03-19T15:52:42.166Z,10.88
2019-03-19T15:56:05.559Z,14.45
2019-03-19T15:59:28.798Z,11.78
2019-03-19T16:02:52.225Z,16.85
2019-03-19T16:06:15.719Z,15.25
2019-03-19T16:09:39.061Z,11.28
2019-03-19T16:13:02.272Z,11.57
2019-03-19T16:16:25.572Z,11.95
2019-03-19T16:19:50.048Z,18.70
2019-03-19T16:23:14.273Z,10.53
2019-03-19T16:26:37.795Z,10.00
2019-03-19T16:30:00.909Z,12.63
2019-03-19T16:33:24.182Z,15.45
2019-03-19T16:36:47.438Z,9.08
2019-03-19T16:40:16.068Z,8.53
2019-03-19T16:43:39.438Z,17.42
2019-03-19T16:47:02.927Z,11.63
2019-03-19T16:50:26.275Z,11.40
2019-03-19T16:53:49.665Z,12.23
2019-03-19T16:57:12.966Z,12.43
2019-03-19T17:00:36.175Z,14.33
2019-03-19T17:03:59.511Z,8.67
2019-03-19T17:07:22.644Z,9.37
2019-03-19T17:12:14.396Z,11.53
2019-03-19T17:16:06.107Z,14.17
2019-03-19T17:19:29.302Z,13.73
2019-03-19T17:22:52.451Z,13.53
2019-03-19T17:26:16.571Z,12.53
2019-03-19T17:29:39.679Z,12.47
2019-03-19T17:33:07.854Z,11.90
2019-03-19T17:36:36.843Z,15.17
2019-03-19T17:40:09.423Z,12.23
2019-03-19T17:43:33.587Z,12.50
2019-03-19T17:46:57.995Z,17.50
2019-03-19T17:50:21.420Z,14.27
2019-03-19T17:53:45.052Z,18.87
2019-03-19T17:57:08.305Z,11.37
2019-03-19T18:00:31.929Z,13.67
2019-03-19T18:03:55.137Z,12.70
2019-03-19T18:07:18.309Z,12.43
2019-03-19T18:10:42.505Z,14.83
2019-03-19T18:14:05.762Z,20.27
2019-03-19T18:17:29.011Z,14.17
2019-03-19T18:20:52.313Z,16.13
2019-03-19T18:24:15.429Z,13.00
2019-03-19T18:27:38.667Z,18.03
2019-03-19T18:31:01.801Z,19.10
2019-03-19T18:34:25.107Z,15.10
2019-03-19T18:37:48.390Z,19.47
2019-03-19T18:41:12.022Z,13.53
2019-03-19T18:44:35.188Z,16.60
2019-03-19T18:47:58.291Z,13.13
2019-03-19T18:51:21.410Z,14.27
2019-03-19T18:54:44.691Z,14.80
2019-03-19T18:58:07.864Z,15.03
2019-03-19T19:01:31.054Z,17.17
2019-03-19T19:04:54.477Z,15.83
2019-03-19T19:08:17.764Z,12.70
2019-03-19T19:11:41.021Z,15.50
2019-03-19T19:15:05.673Z,13.10
2019-03-19T19:18:28.838Z,14.13
2019-03-19T19:21:52.305Z,14.33
2019-03-19T19:25:18.115Z,15.23
2019-03-19T19:28:42.559Z,14.57
2019-03-19T19:32:05.701Z,19.30
2019-03-19T19:35:28.839Z,14.27
2019-03-19T19:38:52.334Z,20.90
2019-03-19T19:42:15.953Z,17.23
2019-03-19T19:45:39.788Z,23.13
2019-03-19T19:49:03.012Z,18.53
2019-03-19T19:52:26.360Z,22.87
2019-03-19T19:55:49.686Z,17.40
2019-03-19T19:59:13.010Z,19.60
2019-03-19T20:02:36.263Z,18.40
2019-03-19T20:05:59.690Z,16.30
2019-03-19T20:09:23.087Z,18.63
2019-03-19T20:12:46.551Z,15.37
2019-03-19T20:16:10.016Z,25.13
2019-03-19T20:19:33.234Z,20.67
2019-03-19T20:22:56.555Z,22.70
2019-03-19T20:26:19.747Z,18.07
2019-03-19T20:29:43.274Z,17.10
2019-03-19T20:33:06.506Z,20.77
2019-03-19T20:36:29.774Z,18.47
2019-03-19T20:39:54.758Z,17.40
2019-03-19T20:43:18.233Z,19.87
2019-03-19T20:46:44.057Z,17.97
2019-03-19T20:50:17.948Z,16.03
2019-03-19T20:53:41.351Z,16.77
2019-03-19T20:57:05.245Z,21.60
2019-03-19T21:00:31.812Z,18.67
2019-03-19T21:03:55.125Z,19.30
2019-03-19T21:07:18.257Z,17.50
2019-03-19T21:10:41.633Z,20.37
2019-03-19T21:14:05.109Z,18.47
2019-03-19T21:17:28.418Z,20.03
2019-03-19T21:20:51.695Z,19.13
2019-03-19T21:24:15.038Z,15.07
2019-03-19T21:27:41.744Z,16.77
2019-03-19T21:31:08.437Z,17.90
2019-03-19T21:34:32.047Z,15.03
2019-03-19T21:37:55.185Z,17.90
2019-03-19T21:41:18.503Z,22.80
2019-03-19T21:44:41.731Z,19.53
2019-03-19T21:48:04.815Z,18.73
2019-03-19T21:51:28.337Z,17.00
2019-03-19T21:54:51.440Z,17.43
2019-03-19T21:58:14.540Z,19.07
2019-03-19T22:01:37.855Z,20.73
2019-03-19T22:05:01.181Z,19.30
2019-03-19T22:08:24.406Z,16.90
2019-03-19T22:11:47.650Z,17.03
2019-03-19T22:15:14.302Z,19.00
2019-03-19T22:18:37.826Z,17.70
2019-03-19T22:22:00.943Z,19.73
2019-03-19T22:25:24.397Z,17.67
2019-03-19T22:28:47.777Z,23.27
2019-03-19T22:32:10.981Z,16.93
2019-03-19T22:35:34.202Z,15.83
2019-03-19T22:38:57.381Z,18.23
2019-03-19T22:42:20.664Z,19.57
2019-03-19T22:45:43.825Z,15.17
2019-03-19T22:49:07.307Z,22.07
2019-03-19T22:52:30.519Z,18.70
2019-03-19T22:55:53.752Z,21.27
2019-03-19T22:59:17.000Z,21.37
2019-03-19T23:02:40.213Z,20.60
2019-03-19T23:06:03.467Z,22.67
2019-03-19T23:09:26.697Z,34.17
2019-03-19T23:12:49.985Z,26.37
2019-03-19T23:16:13.253Z,29.67
2019-03-19T23:19:36.663Z,24.77
2019-03-19T23:22:59.812Z,20.53
2019-03-19T23:26:22.988Z,17.03
2019-03-19T23:29:46.193Z,20.67
2019-03-19T23:33:09.394Z,21.93
2019-03-19T23:36:35.568Z,18.17
2019-03-19T23:39:59.182Z,21.00
2019-03-19T23:43:22.454Z,17.40
2019-03-19T23:46:45.701Z,29.20
2019-03-19T23:50:10.158Z,20.93
2019-03-19T23:53:34.616Z,24.00
2019-03-19T23:56:57.999Z,21.67
